Latest Weather Observations for Carters Bore

IDQ60801

Issued at 10:02 pm EST Thursday 23 March 2017 (issued every 30 minutes, with the page automatically refreshed every 10 minutes)

About weather observations | Map of weather stations | Latest weather observations for QLD | Other Formats
Station Details ID: 037053 Name: CARTERS BORE Lat: -20.94 Lon: 139.30 Height: 396.0 m
Data from the previous 72 hours. | See also: Recent months at Carters Bore
Date/Time
EST
Temp
°C
App
Temp
°C
Dew
Point
°C
Rel
Hum
%
Delta-T
°C
Wind Press
QNH
hPa
Press
MSL
hPa
Rain since
9am
mm
Dir  Spd
km/h
Gust
km/h
Spd
kts
Gust
kts
23/10:00pm 31.2 31.5 14.4 36 10.4 ESE 6 6 3 3 - - 0.0
23/09:30pm 31.9 32.2 14.5 34 10.8 ESE 6 7 3 4 - - 0.0
23/09:00pm 32.3 32.2 14.0 33 11.3 SE 7 9 4 5 - - 0.0
23/08:30pm 33.4 33.0 12.9 28 12.5 SE 7 11 4 6 - - 0.0
23/08:00pm 33.5 33.3 13.0 29 12.5 ESE 6 7 3 4 - - 0.0
23/07:30pm 34.2 34.0 13.1 28 12.9 SSE 6 7 3 4 - - 0.0
23/07:00pm 35.5 34.7 11.8 24 14.3 SSE 7 11 4 6 - - 0.0
23/06:30pm 36.5 35.4 12.0 23 14.9 SE 9 15 5 8 - - 0.0
23/06:00pm 37.0 35.7 12.4 23 15.1 SSE 11 17 6 9 - - 0.0
23/05:30pm 36.9 36.0 13.6 24 14.5 S 11 19 6 10 - - 0.0
23/05:00pm 38.1 37.4 13.3 22 15.5 SSE 9 17 5 9 - - 0.0
23/04:30pm 38.1 37.8 13.3 22 15.5 NNE 7 13 4 7 - - 0.0
23/04:00pm 38.1 37.8 13.3 22 15.5 SW 7 17 4 9 - - 0.0
23/03:30pm 37.8 37.3 13.8 24 15.1 SSE 9 19 5 10 - - 0.0
23/03:00pm 37.1 37.9 13.8 25 14.6 SSE 2 7 1 4 - - 0.0
23/02:30pm 36.1 35.9 13.6 26 14.0 E 7 15 4 8 - - 0.0
23/02:00pm 37.1 37.2 13.8 25 14.6 S 6 11 3 6 - - 0.0
23/01:30pm 37.5 37.9 15.3 26 14.2 S 7 15 4 8 - - 0.0
23/01:00pm 36.1 36.7 15.8 30 13.0 N 7 13 4 7 - - 0.0
23/12:30pm 35.9 36.6 15.6 30 13.0 SSE 6 11 3 6 - - 0.0
23/12:00pm 35.7 37.3 17.9 35 11.7 NNE 6 9 3 5 - - 0.0
23/11:30am 34.2 35.6 16.5 34 11.4 N 4 9 2 5 - - 0.0
23/11:00am 34.0 35.7 17.2 36 10.9 ESE 4 7 2 4 - - 0.0
23/10:30am 33.2 35.0 18.2 41 9.9 WSW 6 13 3 7 - - 0.0
23/10:00am 32.4 34.1 19.3 46 8.7 WSW 9 13 5 7 - - 0.0
23/09:30am 31.5 33.2 18.5 46 8.5 W 7 13 4 7 - - 0.0
23/09:00am 30.9 33.0 19.3 50 7.7 WSW 7 13 4 7 - - 3.6
23/08:30am 29.7 31.2 18.8 52 7.1 W 9 13 5 7 - - 3.6
23/08:00am 28.2 30.6 20.0 61 5.4 WNW 7 9 4 5 - - 3.6
23/07:30am 26.7 30.5 21.0 71 3.8 W 2 4 1 2 - - 3.6
23/07:00am 25.2 30.1 22.3 84 2.0 CALM 0 2 0 1 - - 3.6
23/06:30am 25.6 29.1 21.9 80 2.5 WNW 6 7 3 4 - - 3.6
23/06:00am 25.4 29.3 22.5 84 2.0 NNW 6 7 3 4 - - 3.6
23/05:30am 25.1 28.9 22.4 85 1.8 N 6 7 3 4 - - 3.6
23/05:00am 24.7 28.1 21.6 83 2.1 N 6 11 3 6 - - 3.6
23/04:30am 27.8 29.9 20.1 63 5.1 NE 9 15 5 8 - - 0.2
23/04:00am 28.2 30.1 18.6 56 6.3 N 6 7 3 4 - - 0.0
23/03:30am 28.0 29.4 18.7 57 6.1 W 9 13 5 7 - - 0.0
23/03:00am 28.2 30.5 18.6 56 6.3 ENE 4 6 2 3 - - 0.0
23/02:30am 28.6 30.4 18.4 54 6.6 NNE 6 7 3 4 - - 0.0
23/02:00am 28.4 30.0 17.9 53 6.8 E 6 6 3 3 - - 0.0
23/01:30am 29.2 30.6 17.7 50 7.4 ENE 7 11 4 6 - - 0.0
23/01:00am 28.5 29.9 18.6 55 6.5 ENE 9 11 5 6 - - 0.0
23/12:30am 28.3 30.8 19.0 57 6.1 NE 4 6 2 3 - - 0.0
23/12:00am 28.4 30.9 19.1 57 6.1 NE 4 6 2 3 - - 0.0
 
Date/Time
EST
Temp
°C
App
Temp
°C
Dew
Point
°C
Rel
Hum
%
Delta-T
°C
Wind Press
QNH
hPa
Press
MSL
hPa
Rain since
9am
mm
Dir  Spd
km/h
Gust
km/h
Spd
kts
Gust
kts
22/11:30pm 28.9 31.3 18.7 54 6.7 NNE 4 6 2 3 - - 0.0
22/11:00pm 28.9 31.5 19.2 55 6.4 NE 4 7 2 4 - - 0.0
22/10:30pm 29.4 31.2 18.8 53 6.9 NE 7 9 4 5 - - 0.0
22/10:00pm 29.8 31.4 18.3 50 7.5 NE 7 9 4 5 - - 0.0
22/09:30pm 30.7 32.0 17.0 43 8.8 E 6 9 3 5 - - 0.0
22/09:00pm 30.9 31.8 16.5 42 9.2 SE 7 11 4 6 - - 0.0
22/08:30pm 31.1 32.2 16.7 42 9.2 ESE 6 9 3 5 - - 0.0
22/08:00pm 31.4 32.3 16.2 40 9.7 ENE 6 11 3 6 - - 0.0
22/07:30pm 31.5 32.9 15.5 38 10.1 NNE 2 4 1 2 - - 0.0
22/07:00pm 31.5 32.5 16.3 40 9.7 S 6 13 3 7 - - 0.0
22/06:30pm 32.4 33.2 16.3 38 10.3 S 7 11 4 6 - - 0.0
22/06:00pm 32.1 31.9 15.6 37 10.4 NNE 11 17 6 9 - - 0.0
22/05:30pm 32.0 29.4 15.9 38 10.2 NNE 24 35 13 19 - - 0.0
22/05:00pm 33.8 32.3 16.2 35 11.3 NE 19 30 10 16 - - 0.0
22/04:30pm 36.2 34.7 15.3 28 13.3 SE 17 35 9 19 - - 0.0
22/04:00pm 39.0 38.5 12.0 20 16.6 S 6 7 3 4 - - 0.0
22/03:30pm 39.0 37.8 12.7 21 16.3 S 11 19 6 10 - - 0.0
22/03:00pm 38.5 37.9 12.3 21 16.1 WNW 7 15 4 8 - - 0.0
22/02:30pm 37.6 36.4 12.9 23 15.3 WSW 11 20 6 11 - - 0.0
22/02:00pm 37.9 37.8 13.2 23 15.4 NE 6 7 3 4 - - 0.0
22/01:30pm 36.4 36.5 13.8 26 14.1 W 6 17 3 9 - - 0.0
22/01:00pm 36.5 37.6 14.5 27 13.9 S 2 9 1 5 - - 0.0
22/12:30pm 35.8 36.3 16.5 31 12.5 WSW 9 15 5 8 - - 0.0
22/12:00pm 35.9 36.6 18.0 34 11.8 NW 11 20 6 11 - - 0.0
22/11:30am 35.1 35.9 18.2 36 11.2 WNW 11 22 6 12 - - 0.0
22/11:00am 33.8 34.8 18.7 40 10.0 WNW 11 20 6 11 - - 0.0
22/10:30am 33.1 33.4 18.8 42 9.5 NW 15 26 8 14 - - 0.0
22/10:00am 32.4 33.0 20.3 48 8.2 NW 17 22 9 12 - - 0.0
22/09:30am 31.7 32.7 20.3 50 7.7 NW 15 20 8 11 - - 0.0
22/09:00am 30.9 32.0 20.5 54 7.0 NW 15 22 8 12 - - 0.0
22/08:30am 29.4 30.8 20.3 58 6.1 NW 13 19 7 10 - - 0.0
22/08:00am 27.7 30.2 20.3 64 4.9 NNW 7 13 4 7 - - 0.0
22/07:30am 26.2 28.8 19.3 65 4.5 N 4 6 2 3 - - 0.0
22/07:00am 25.7 28.1 19.6 69 4.0 NNE 6 7 3 4 - - 0.0
22/06:30am 25.5 27.7 19.2 68 4.1 NNE 6 9 3 5 - - 0.0
22/06:00am 25.8 27.9 19.0 66 4.4 N 6 9 3 5 - - 0.0
22/05:30am 26.2 28.5 18.6 63 4.9 NNE 4 6 2 3 - - 0.0
22/05:00am 26.3 28.7 17.9 60 5.4 N 2 6 1 3 - - 0.0
22/04:30am 27.0 28.7 18.0 58 5.8 NNW 6 9 3 5 - - 0.0
22/04:00am 27.5 29.4 17.7 55 6.3 NNW 4 7 2 4 - - 0.0
22/03:30am 28.0 29.5 18.1 55 6.4 NNW 7 13 4 7 - - 0.0
22/03:00am 27.6 29.9 18.6 58 5.8 N 4 6 2 3 - - 0.0
22/02:30am 28.4 30.4 18.8 56 6.3 NNE 6 11 3 6 - - 0.0
22/02:00am 28.4 30.1 18.5 55 6.4 N 7 11 4 6 - - 0.0
22/01:30am 29.2 30.3 18.0 51 7.3 NNE 9 19 5 10 - - 0.0
22/01:00am 29.2 30.8 18.3 51 7.1 NNE 7 13 4 7 - - 0.0
22/12:30am 28.7 30.3 19.1 56 6.3 NE 9 20 5 11 - - 0.0
22/12:00am 28.9 31.3 18.9 54 6.6 NNW 4 9 2 5 - - 0.0
 
Date/Time
EST
Temp
°C
App
Temp
°C
Dew
Point
°C
Rel
Hum
%
Delta-T
°C
Wind Press
QNH
hPa
Press
MSL
hPa
Rain since
9am
mm
Dir  Spd
km/h
Gust
km/h
Spd
kts
Gust
kts
21/11:30pm 29.3 31.7 18.7 52 6.9 NW 4 6 2 3 - - 0.0
21/11:00pm 30.0 32.0 18.8 51 7.4 N 6 7 3 4 - - 0.0
21/10:30pm 30.5 32.2 18.6 49 7.8 N 7 11 4 6 - - 0.0
21/10:00pm 31.1 32.8 18.5 47 8.3 N 7 11 4 6 - - 0.0
21/09:30pm 31.9 32.9 17.8 43 9.2 N 9 15 5 8 - - 0.0
21/09:00pm 32.5 32.9 17.2 40 9.9 N 11 17 6 9 - - 0.0
21/08:30pm 33.1 33.0 16.0 35 10.9 N 11 17 6 9 - - 0.0
21/08:00pm 33.5 33.8 15.9 34 11.2 N 9 13 5 7 - - 0.0
21/07:30pm 34.2 34.0 15.6 32 11.8 NNW 11 15 6 8 - - 0.0
21/07:00pm 35.6 34.7 11.3 23 14.6 S 7 13 4 7 - - 0.0
21/06:30pm 36.9 35.3 10.2 20 15.9 SW 9 15 5 8 - - 0.0
21/06:00pm 37.5 36.6 10.7 20 16.1 SSE 6 11 3 6 - - 0.0
21/05:30pm 37.1 36.5 10.4 20 15.9 SW 4 6 2 3 - - 0.0
21/05:00pm 38.1 36.9 9.6 18 16.9 WNW 6 15 3 8 - - 0.0
21/04:30pm 38.1 37.0 10.5 19 16.5 SW 7 15 4 8 - - 0.0
21/04:00pm 37.7 35.5 10.9 20 16.1 WSW 13 26 7 14 - - 0.0
21/03:30pm 37.8 36.8 12.4 22 15.6 SSE 9 20 5 11 - - 0.0
21/03:00pm 37.5 36.5 13.5 24 15.0 W 11 17 6 9 - - 0.0
21/02:30pm 35.8 35.3 13.9 27 13.7 SW 9 17 5 9 - - 0.0
21/02:00pm 35.3 35.4 14.0 28 13.3 WNW 6 7 3 4 - - 0.0
21/01:30pm 36.4 36.3 15.0 28 13.6 WNW 9 17 5 9 - - 0.0
21/01:00pm 35.5 36.3 16.3 32 12.4 SW 7 15 4 8 - - 0.0
21/12:30pm 35.4 35.4 17.1 33 11.9 WSW 13 19 7 10 - - 0.0
21/12:00pm 33.8 34.1 17.9 38 10.4 WSW 13 20 7 11 - - 0.0
21/11:30am 32.9 34.6 19.4 45 9.0 W 9 20 5 11 - - 0.0
21/11:00am 32.9 34.2 20.1 47 8.6 WNW 13 22 7 12 - - 0.0
21/10:30am 31.9 33.8 20.5 51 7.7 NW 11 24 6 13 - - 0.0
21/10:00am 30.7 32.2 21.2 57 6.5 NW 15 22 8 12 - - 0.0
21/09:30am 29.8 31.4 21.5 61 5.6 NW 15 24 8 13 - - 0.0
21/09:00am 28.7 30.8 21.7 66 4.8 NW 13 19 7 10 - - -
21/08:30am 27.8 30.5 21.3 67 4.4 NNW 9 15 5 8 - - -
21/08:00am 26.9 30.4 20.3 67 4.4 N 2 6 1 3 - - -
21/07:30am 25.9 29.2 20.0 70 3.9 E 2 4 1 2 - - -
21/07:00am 24.4 28.0 20.5 79 2.6 SSE 2 4 1 2 - - -
21/06:30am 25.1 28.0 20.6 76 3.0 WSW 6 13 3 7 - - -
21/06:00am 25.3 28.5 20.5 75 3.2 NNW 4 7 2 4 - - -
21/05:30am 25.4 27.9 19.8 71 3.7 N 6 9 3 5 - - -
21/05:00am 26.0 27.7 19.4 67 4.3 N 9 11 5 6 - - -
21/04:30am 26.2 28.7 19.1 65 4.6 N 4 7 2 4 - - -
21/04:00am 26.6 28.3 18.5 61 5.2 N 7 11 4 6 - - -
21/03:30am 27.1 27.9 18.1 58 5.8 N 11 17 6 9 - - -
21/03:00am 27.4 28.0 17.8 55 6.2 N 11 17 6 9 - - 0.0
21/02:30am 27.0 28.5 18.0 58 5.8 NNE 7 9 4 5 - - -
21/02:00am 27.1 28.7 17.8 56 6.0 N 6 7 3 4 - - -
21/01:30am 27.6 29.1 17.5 54 6.5 N 6 11 3 6 - - -
21/01:00am 27.8 29.2 17.9 54 6.4 NNE 7 13 4 7 - - -
21/12:30am 27.8 29.2 17.9 54 6.4 N 7 9 4 5 - - -
21/12:00am 28.6 30.0 17.8 52 7.0 N 7 11 4 6 - - -
 
Date/Time
EST
Temp
°C
App
Temp
°C
Dew
Point
°C
Rel
Hum
%
Delta-T
°C
Wind Press
QNH
hPa
Press
MSL
hPa
Rain since
9am
mm
Dir  Spd
km/h
Gust
km/h
Spd
kts
Gust
kts
20/11:30pm 28.0 29.6 17.8 54 6.6 NE 6 9 3 5 - - -
20/11:00pm 28.9 30.4 18.1 52 7.0 N 7 9 4 5 - - -
20/10:30pm 29.4 30.7 17.6 49 7.6 N 7 11 4 6 - - -

Other Formats:

Comma delimited format used in spreadsheet applications
http://www.bom.gov.au/fwo/IDQ60801/IDQ60801.94347.axf

JavaScript Object Notation format (JSON) in row-major order
http://www.bom.gov.au/fwo/IDQ60801/IDQ60801.94347.json